Time;durP1;ratioP1;P1;durP2;ratioP2;P2;SDS_P1;SDS_P2;PMS_P1;PMS_P2;Temp;Humidity;BMP_temperature;BMP_pressure;BME280_temperature;BME280_humidity;BME280_pressure;Samples;Min_cycle;Max_cycle;Signal;HPM_P1;HPM_P2
2021/12/30 00:00:10;;;;;;;52.30;14.27;;;11.10;99.90;;;;;;5035358;28;20075;-80
2021/12/30 00:02:36;;;;;;;61.33;15.23;;;11.10;99.90;;;;;;5035055;28;20028;-82
2021/12/30 00:05:02;;;;;;;62.67;15.00;;;11.10;99.90;;;;;;5034971;28;20025;-81
2021/12/30 00:07:29;;;;;;;55.95;16.13;;;11.10;99.90;;;;;;5035155;28;20113;-83
2021/12/30 00:09:54;;;;;;;51.05;15.63;;;11.20;99.90;;;;;;5034244;28;20041;-79
2021/12/30 00:12:20;;;;;;;57.95;15.32;;;11.20;99.90;;;;;;5034644;28;20024;-77
2021/12/30 00:14:46;;;;;;;50.58;16.65;;;11.20;99.90;;;;;;5033886;28;20151;-77
2021/12/30 00:17:11;;;;;;;59.38;16.67;;;11.20;99.90;;;;;;5033490;28;20017;-79
2021/12/30 00:19:37;;;;;;;59.22;19.40;;;11.20;99.90;;;;;;5034586;28;20370;-76
2021/12/30 00:22:04;;;;;;;60.35;18.83;;;11.20;99.90;;;;;;5034419;28;20056;-84
2021/12/30 00:24:29;;;;;;;56.03;19.40;;;11.20;99.90;;;;;;5034732;28;20059;-82
2021/12/30 00:26:55;;;;;;;65.53;20.42;;;11.20;99.90;;;;;;5033675;28;20116;-79
2021/12/30 00:29:21;;;;;;;60.22;19.77;;;11.20;99.90;;;;;;5032864;28;20044;-79
2021/12/30 00:31:46;;;;;;;64.20;21.27;;;11.20;99.90;;;;;;5029798;28;20052;-81
2021/12/30 00:34:12;;;;;;;59.60;19.50;;;11.20;99.90;;;;;;5032841;28;20148;-77
2021/12/30 00:36:38;;;;;;;58.45;20.67;;;11.20;99.90;;;;;;5032538;28;20523;-79
2021/12/30 00:39:04;;;;;;;60.60;20.13;;;11.20;99.90;;;;;;5032740;28;20124;-79
2021/12/30 00:41:29;;;;;;;61.10;19.65;;;11.20;99.90;;;;;;5032582;28;20052;-81
2021/12/30 00:43:55;;;;;;;59.35;19.10;;;11.20;99.90;;;;;;5033248;28;20034;-81
2021/12/30 00:46:20;;;;;;;73.38;21.83;;;11.30;99.90;;;;;;5034204;28;20030;-81
2021/12/30 00:48:46;;;;;;;63.58;19.52;;;11.30;99.90;;;;;;5034354;28;20017;-81
2021/12/30 00:51:12;;;;;;;68.75;18.85;;;11.30;99.90;;;;;;5033660;28;20604;-81
2021/12/30 00:53:38;;;;;;;58.80;18.27;;;11.30;99.90;;;;;;5033388;28;20037;-81
2021/12/30 00:56:04;;;;;;;63.40;18.92;;;11.30;99.90;;;;;;5034236;28;20056;-81
2021/12/30 00:58:30;;;;;;;55.63;17.23;;;11.30;99.90;;;;;;5034177;28;20374;-81
2021/12/30 01:00:56;;;;;;;59.17;16.67;;;11.30;99.90;;;;;;5033721;28;20056;-81
2021/12/30 01:03:21;;;;;;;50.35;17.98;;;11.40;99.90;;;;;;5034237;28;20033;-80
2021/12/30 01:05:47;;;;;;;54.13;16.23;;;11.40;99.90;;;;;;5033459;28;20037;-79
2021/12/30 01:08:14;;;;;;;60.97;16.75;;;11.40;99.90;;;;;;5032315;28;20381;-79
2021/12/30 01:10:42;;;;;;;62.42;16.33;;;11.50;99.90;;;;;;5030002;28;20029;-80
2021/12/30 01:13:14;;;;;;;64.50;16.00;;;11.50;99.90;;;;;;5032919;28;20398;-81
2021/12/30 01:15:56;;;;;;;;;;;11.50;99.90;;;;;;5034111;28;20078;-81
2021/12/30 01:21:08;;;;;;;53.90;14.43;;;11.50;99.90;;;;;;5033711;28;20029;-80
2021/12/30 01:23:33;;;;;;;46.47;12.40;;;11.60;99.90;;;;;;5032963;28;20034;-80
2021/12/30 01:25:59;;;;;;;65.53;13.00;;;11.60;99.90;;;;;;5033634;28;20084;-80
2021/12/30 01:28:27;;;;;;;48.55;11.60;;;11.60;99.90;;;;;;5033815;28;20017;-80
2021/12/30 01:30:53;;;;;;;48.78;11.38;;;11.60;99.90;;;;;;5033165;28;20112;-80
2021/12/30 01:33:18;;;;;;;56.17;11.43;;;11.70;99.90;;;;;;5032822;28;20148;-80
2021/12/30 01:35:44;;;;;;;56.90;11.25;;;11.60;99.90;;;;;;5033144;28;20026;-80
2021/12/30 01:38:12;;;;;;;54.63;10.52;;;11.70;99.90;;;;;;5032863;28;20029;-79
2021/12/30 01:40:40;;;;;;;46.35;10.38;;;11.70;99.90;;;;;;5030982;28;20114;-80
2021/12/30 01:43:07;;;;;;;59.45;11.25;;;11.80;99.90;;;;;;5033048;28;20157;-80
2021/12/30 01:45:33;;;;;;;53.42;11.13;;;11.70;99.90;;;;;;5033269;28;20159;-81
2021/12/30 01:47:59;;;;;;;51.38;10.80;;;11.80;99.90;;;;;;5033065;28;20043;-81
2021/12/30 01:50:25;;;;;;;54.83;10.82;;;11.80;99.90;;;;;;5032642;28;20104;-80
2021/12/30 01:52:52;;;;;;;56.75;11.95;;;11.80;99.90;;;;;;5032798;28;20038;-81
2021/12/30 01:55:19;;;;;;;55.78;11.85;;;11.80;99.90;;;;;;5032487;28;20069;-79
2021/12/30 01:57:46;;;;;;;59.88;13.73;;;11.90;99.90;;;;;;5031654;28;20482;-80
2021/12/30 02:00:16;;;;;;;49.95;13.10;;;11.90;99.90;;;;;;5032661;28;20048;-79
2021/12/30 02:02:41;;;;;;;57.78;14.38;;;11.90;99.90;;;;;;5037372;28;20028;-81
2021/12/30 02:05:08;;;;;;;55.15;13.70;;;11.90;99.90;;;;;;5038027;28;20029;-79
2021/12/30 02:07:34;;;;;;;67.78;15.15;;;12.00;99.90;;;;;;5032742;28;20021;-80
2021/12/30 02:10:02;;;;;;;59.35;15.10;;;12.00;99.90;;;;;;5033079;28;20465;-79
2021/12/30 02:12:31;;;;;;;56.95;14.02;;;12.00;99.90;;;;;;5032443;28;20392;-80
2021/12/30 02:14:57;;;;;;;56.17;14.35;;;12.00;99.90;;;;;;5032479;28;20507;-80
2021/12/30 02:17:23;;;;;;;56.80;14.93;;;12.00;99.90;;;;;;5030385;28;20127;-80
2021/12/30 02:19:49;;;;;;;61.53;16.88;;;12.00;99.90;;;;;;5032555;28;20041;-80
2021/12/30 02:22:14;;;;;;;65.90;17.35;;;12.10;99.90;;;;;;5032198;28;20018;-79
2021/12/30 02:24:47;;;;;;;75.03;18.40;;;12.00;99.90;;;;;;5032105;28;20037;-79
2021/12/30 02:27:13;;;;;;;79.85;18.83;;;12.00;99.90;;;;;;5032544;28;20029;-79
2021/12/30 02:29:39;;;;;;;68.60;18.27;;;12.00;99.90;;;;;;5031859;28;20392;-78
2021/12/30 02:32:05;;;;;;;73.50;18.25;;;12.00;99.90;;;;;;5032175;28;20030;-79
2021/12/30 02:34:30;;;;;;;78.35;20.70;;;12.00;99.90;;;;;;5032166;28;20029;-79
2021/12/30 02:36:56;;;;;;;66.50;18.52;;;12.00;99.90;;;;;;5032121;28;20160;-79
2021/12/30 02:39:23;;;;;;;83.97;21.98;;;12.00;99.90;;;;;;5031562;28;20041;-79
2021/12/30 02:41:49;;;;;;;74.63;20.42;;;12.10;99.90;;;;;;5032143;28;20070;-79
2021/12/30 02:44:16;;;;;;;75.88;18.92;;;12.10;99.90;;;;;;5031526;28;20033;-79
2021/12/30 02:46:42;;;;;;;67.70;18.67;;;12.10;99.90;;;;;;5032246;28;20072;-79
2021/12/30 02:49:08;;;;;;;69.43;19.52;;;12.10;99.90;;;;;;5031877;28;20477;-80
2021/12/30 02:51:34;;;;;;;75.95;19.00;;;12.10;99.90;;;;;;5032022;28;20041;-78
2021/12/30 02:54:01;;;;;;;74.63;18.05;;;12.20;99.90;;;;;;5031441;28;20163;-78
2021/12/30 02:56:28;;;;;;;71.72;19.65;;;12.20;99.90;;;;;;5032305;28;20030;-78
2021/12/30 02:58:54;;;;;;;70.95;19.70;;;12.20;99.90;;;;;;5031494;28;20068;-81
2021/12/30 03:01:29;;;;;;;72.82;19.17;;;12.20;99.90;;;;;;5033024;28;20501;-80
2021/12/30 03:03:57;;;;;;;72.45;19.38;;;12.30;99.90;;;;;;5029020;28;20520;-80
2021/12/30 03:06:23;;;;;;;71.18;18.73;;;12.30;99.90;;;;;;5031650;28;20029;-80
2021/12/30 03:08:51;;;;;;;81.78;18.75;;;12.20;99.90;;;;;;5031183;28;20025;-80
2021/12/30 03:11:18;;;;;;;77.47;18.88;;;12.30;99.90;;;;;;5031902;28;20022;-80
2021/12/30 03:13:44;;;;;;;73.43;19.40;;;12.30;99.90;;;;;;5031150;28;20397;-80
2021/12/30 03:16:14;;;;;;;75.60;18.80;;;12.30;99.90;;;;;;5034236;28;20029;-80
2021/12/30 03:18:41;;;;;;;59.90;18.52;;;12.30;99.90;;;;;;5035505;28;20029;-80
2021/12/30 03:21:09;;;;;;;55.60;16.92;;;12.30;99.90;;;;;;5035803;28;20040;-81
2021/12/30 03:23:35;;;;;;;61.17;18.15;;;12.30;99.90;;;;;;5035457;28;20044;-80
2021/12/30 03:26:02;;;;;;;69.05;18.63;;;12.30;99.90;;;;;;5035759;28;20030;-80
2021/12/30 03:28:27;;;;;;;71.85;18.70;;;12.30;99.90;;;;;;5034766;28;20488;-80
2021/12/30 03:30:58;;;;;;;50.92;17.40;;;12.40;99.90;;;;;;5035664;28;20075;-80
2021/12/30 03:33:28;;;;;;;79.47;19.45;;;12.30;99.90;;;;;;5035216;28;20025;-80
2021/12/30 03:35:55;;;;;;;67.82;18.73;;;12.40;99.90;;;;;;5035320;28;20576;-80
2021/12/30 03:38:20;;;;;;;71.03;18.85;;;12.40;99.90;;;;;;5035426;28;20060;-81
2021/12/30 03:40:46;;;;;;;61.80;19.92;;;12.30;99.90;;;;;;5035454;28;20021;-80
2021/12/30 03:43:11;;;;;;;55.65;18.40;;;12.30;99.90;;;;;;5035269;28;20025;-80
2021/12/30 03:45:37;;;;;;;51.83;19.83;;;12.30;99.90;;;;;;5035165;28;20032;-80
2021/12/30 03:48:03;;;;;;;63.42;18.52;;;12.30;99.90;;;;;;5035301;28;20025;-80
2021/12/30 03:50:29;;;;;;;66.30;19.55;;;12.40;99.90;;;;;;5035005;28;20029;-78
2021/12/30 03:52:58;;;;;;;69.55;19.45;;;12.40;99.90;;;;;;5035329;28;20130;-78
2021/12/30 03:55:26;;;;;;;76.30;19.90;;;12.30;99.90;;;;;;5034722;28;20046;-79
2021/12/30 03:57:52;;;;;;;225.45;21.77;;;12.30;99.90;;;;;;5035523;28;20030;-79
2021/12/30 04:00:21;;;;;;;75.38;21.02;;;12.30;99.90;;;;;;5035477;28;20037;-79
2021/12/30 04:02:47;;;;;;;62.10;21.42;;;12.30;99.90;;;;;;5035129;28;20133;-78
2021/12/30 04:05:12;;;;;;;58.97;21.30;;;12.30;99.90;;;;;;5035006;28;20113;-78
2021/12/30 04:07:38;;;;;;;69.10;20.30;;;12.30;99.90;;;;;;5035087;28;20422;-79
2021/12/30 04:10:06;;;;;;;50.08;21.05;;;12.30;99.90;;;;;;5035065;28;20032;-79
2021/12/30 04:12:32;;;;;;;56.53;21.90;;;12.30;99.90;;;;;;5034692;28;20061;-79
2021/12/30 04:14:58;;;;;;;92.88;22.38;;;12.30;99.90;;;;;;5034561;28;20057;-79
2021/12/30 04:17:23;;;;;;;58.92;20.80;;;12.40;99.90;;;;;;5034782;28;20040;-79
2021/12/30 04:19:50;;;;;;;57.75;21.13;;;12.30;99.90;;;;;;5031847;28;20041;-79
2021/12/30 04:22:18;;;;;;;70.35;20.85;;;12.40;99.90;;;;;;5032274;28;20048;-80
2021/12/30 04:24:45;;;;;;;52.78;20.13;;;12.40;99.90;;;;;;5034123;28;20481;-80
2021/12/30 04:27:11;;;;;;;52.55;19.25;;;12.40;99.90;;;;;;5033712;28;20392;-79
2021/12/30 04:29:37;;;;;;;52.63;20.20;;;12.30;99.90;;;;;;5034550;28;20028;-80
2021/12/30 04:32:03;;;;;;;48.00;20.75;;;12.30;99.90;;;;;;5034337;28;20037;-79
2021/12/30 04:34:29;;;;;;;56.28;21.67;;;12.30;99.90;;;;;;5034452;28;20030;-79
2021/12/30 04:36:58;;;;;;;52.22;20.25;;;12.40;99.90;;;;;;5034248;28;20025;-78
2021/12/30 04:39:25;;;;;;;45.42;19.63;;;12.40;99.90;;;;;;5033978;28;20045;-78
2021/12/30 04:41:51;;;;;;;46.03;20.92;;;12.40;99.90;;;;;;5034582;28;20385;-78
2021/12/30 04:44:17;;;;;;;87.28;22.27;;;12.40;99.90;;;;;;5034037;28;20029;-78
2021/12/30 04:46:43;;;;;;;43.25;19.90;;;12.40;99.90;;;;;;5034416;28;20414;-79
2021/12/30 04:49:08;;;;;;;47.20;19.45;;;12.40;99.90;;;;;;5034111;28;20032;-78
2021/12/30 04:51:34;;;;;;;41.20;19.55;;;12.40;99.90;;;;;;5034106;28;20061;-78
2021/12/30 04:53:59;;;;;;;38.53;18.98;;;12.40;99.90;;;;;;5043721;28;20069;-78
2021/12/30 04:56:25;;;;;;;39.47;19.73;;;12.50;99.90;;;;;;5033502;28;20022;-77
2021/12/30 04:58:50;;;;;;;137.80;20.58;;;12.50;99.90;;;;;;5033884;28;20037;-77
2021/12/30 05:01:16;;;;;;;330.52;23.30;;;12.50;99.90;;;;;;5033880;28;20112;-77
2021/12/30 05:03:42;;;;;;;42.97;16.27;;;12.50;99.90;;;;;;5033789;28;20108;-77
2021/12/30 05:06:08;;;;;;;62.70;17.08;;;12.50;99.90;;;;;;5033675;28;20037;-80
2021/12/30 05:08:33;;;;;;;40.50;15.27;;;12.50;99.90;;;;;;5033580;28;20032;-80
2021/12/30 05:10:59;;;;;;;60.75;16.00;;;12.50;99.90;;;;;;5033092;28;20041;-79
2021/12/30 05:13:25;;;;;;;34.28;14.77;;;12.50;99.90;;;;;;5034003;28;20040;-78
2021/12/30 05:15:51;;;;;;;55.67;15.75;;;12.50;99.90;;;;;;5033572;28;20025;-79
2021/12/30 05:18:18;;;;;;;184.15;16.13;;;12.50;99.90;;;;;;5033812;28;20033;-79
2021/12/30 05:20:45;;;;;;;28.85;13.10;;;12.50;99.90;;;;;;5033301;28;20029;-80
2021/12/30 05:23:11;;;;;;;22.70;11.95;;;12.60;99.90;;;;;;5033777;28;20032;-82
2021/12/30 05:25:37;;;;;;;22.90;12.23;;;12.50;99.90;;;;;;5032778;28;20477;-79
2021/12/30 05:28:03;;;;;;;36.42;13.25;;;12.50;99.90;;;;;;5033651;28;20080;-79
2021/12/30 05:30:29;;;;;;;41.85;12.45;;;12.50;99.90;;;;;;5032746;28;20021;-78
2021/12/30 05:32:56;;;;;;;46.63;12.75;;;12.50;99.90;;;;;;5033621;28;20075;-79
2021/12/30 05:35:23;;;;;;;17.58;11.10;;;12.50;99.90;;;;;;5032844;28;20029;-79
2021/12/30 05:37:49;;;;;;;86.93;13.10;;;12.60;99.90;;;;;;5033075;28;20067;-78
2021/12/30 05:40:21;;;;;;;39.88;11.85;;;12.60;99.90;;;;;;5030145;28;20373;-78
2021/12/30 05:42:47;;;;;;;145.13;12.82;;;12.60;99.90;;;;;;5033523;28;20040;-79
2021/12/30 05:45:16;;;;;;;31.90;9.93;;;12.60;99.90;;;;;;5032868;28;20033;-79
2021/12/30 05:47:46;;;;;;;15.85;9.60;;;12.60;99.90;;;;;;5033595;28;20029;-78
2021/12/30 05:50:13;;;;;;;17.75;9.88;;;12.60;99.90;;;;;;5038053;28;20025;-79
2021/12/30 05:52:39;;;;;;;13.35;9.35;;;12.60;99.90;;;;;;5041448;28;20026;-78
2021/12/30 05:55:06;;;;;;;13.93;8.75;;;12.60;99.90;;;;;;5032734;28;20758;-79
2021/12/30 05:57:32;;;;;;;13.38;8.18;;;12.60;99.90;;;;;;5032966;28;20496;-79
2021/12/30 05:59:57;;;;;;;10.85;7.82;;;12.70;99.90;;;;;;5032895;28;20037;-79
2021/12/30 06:02:23;;;;;;;14.75;10.15;;;12.70;99.90;;;;;;5032321;28;20480;-79
2021/12/30 06:04:49;;;;;;;13.23;10.02;;;12.60;99.90;;;;;;5032576;28;20029;-79
2021/12/30 06:07:15;;;;;;;16.83;11.02;;;12.70;99.90;;;;;;5032409;28;20026;-79
2021/12/30 06:09:41;;;;;;;18.75;11.85;;;12.70;99.90;;;;;;5032869;28;20026;-79
2021/12/30 06:12:08;;;;;;;20.42;13.40;;;12.70;99.90;;;;;;5032310;28;20122;-77
2021/12/30 06:14:34;;;;;;;25.30;14.18;;;12.70;99.90;;;;;;5032496;28;20069;-77
2021/12/30 06:16:59;;;;;;;25.17;13.88;;;12.80;99.90;;;;;;5032243;28;20060;-78
2021/12/30 06:19:25;;;;;;;21.60;13.43;;;12.80;99.90;;;;;;5032914;28;20029;-79
2021/12/30 06:21:51;;;;;;;21.63;15.02;;;12.80;99.90;;;;;;5032172;28;20017;-78
2021/12/30 06:24:16;;;;;;;18.48;13.70;;;12.80;99.90;;;;;;5033108;28;20025;-78
2021/12/30 06:26:42;;;;;;;20.08;15.25;;;12.80;99.90;;;;;;5032134;28;20461;-78
2021/12/30 06:29:08;;;;;;;25.70;16.25;;;12.80;99.90;;;;;;5032671;28;20025;-79
2021/12/30 06:31:34;;;;;;;26.60;18.90;;;12.80;99.90;;;;;;5032472;28;20029;-79
2021/12/30 06:33:59;;;;;;;27.88;22.05;;;12.80;99.90;;;;;;5032365;28;20476;-80
2021/12/30 06:36:25;;;;;;;33.92;22.90;;;12.80;99.90;;;;;;5032198;28;20104;-79
2021/12/30 06:38:51;;;;;;;28.23;22.33;;;12.80;99.90;;;;;;5032418;28;20057;-79
2021/12/30 06:41:17;;;;;;;28.17;22.13;;;12.80;99.90;;;;;;5032639;28;20091;-80
2021/12/30 06:43:43;;;;;;;29.35;22.88;;;12.80;99.90;;;;;;5032252;28;20354;-77
2021/12/30 06:46:10;;;;;;;29.48;21.35;;;12.80;99.90;;;;;;5035142;28;20079;-77
2021/12/30 06:48:37;;;;;;;21.90;17.40;;;12.80;99.90;;;;;;5038631;28;20116;-78
2021/12/30 06:51:04;;;;;;;15.55;12.70;;;12.90;99.90;;;;;;5026344;28;20477;-80
2021/12/30 06:53:30;;;;;;;13.48;8.45;;;12.90;99.90;;;;;;5030903;28;20168;-79
2021/12/30 06:55:56;;;;;;;8.90;6.72;;;12.90;99.90;;;;;;5030538;28;20033;-78
2021/12/30 06:58:22;;;;;;;8.88;5.28;;;12.90;99.90;;;;;;5031325;28;20033;-79
2021/12/30 07:00:49;;;;;;;6.35;4.03;;;12.90;99.90;;;;;;5031721;28;20032;-79
2021/12/30 07:03:15;;;;;;;6.75;3.70;;;12.90;99.90;;;;;;5031587;28;20023;-79
2021/12/30 07:05:40;;;;;;;7.57;4.45;;;12.90;99.90;;;;;;5031056;28;20025;-79
2021/12/30 07:08:06;;;;;;;5.60;3.42;;;12.90;99.90;;;;;;5031644;28;20056;-79
2021/12/30 07:10:32;;;;;;;5.38;3.80;;;12.90;99.90;;;;;;5031556;28;20139;-78
2021/12/30 07:12:57;;;;;;;7.00;4.22;;;12.90;99.90;;;;;;5031337;28;20025;-78
2021/12/30 07:15:23;;;;;;;5.65;3.38;;;12.90;99.90;;;;;;5031521;28;20485;-78
2021/12/30 07:17:49;;;;;;;7.43;3.88;;;12.90;99.90;;;;;;5030693;28;20037;-78
2021/12/30 07:20:16;;;;;;;5.20;3.60;;;12.80;99.90;;;;;;5031579;28;20032;-78
2021/12/30 07:22:42;;;;;;;6.07;4.55;;;12.90;99.90;;;;;;5031563;28;20116;-78
2021/12/30 07:25:09;;;;;;;7.10;4.85;;;12.90;99.90;;;;;;5031777;28;20384;-78
2021/12/30 07:27:35;;;;;;;6.32;4.68;;;12.90;99.90;;;;;;5031597;28;20465;-77
2021/12/30 07:30:01;;;;;;;10.32;5.60;;;12.90;99.90;;;;;;5031720;28;20530;-76
2021/12/30 07:32:30;;;;;;;11.20;6.88;;;12.90;99.90;;;;;;5031340;28;20389;-77
2021/12/30 07:34:56;;;;;;;10.95;6.97;;;12.90;99.90;;;;;;5031435;28;20033;-76
2021/12/30 07:37:21;;;;;;;11.50;7.35;;;12.90;99.90;;;;;;5031062;28;20021;-75
2021/12/30 07:39:49;;;;;;;11.23;7.72;;;12.90;99.90;;;;;;5031086;28;20450;-75
2021/12/30 07:42:15;;;;;;;13.50;7.93;;;12.90;99.90;;;;;;5037800;28;20047;-74
2021/12/30 07:44:41;;;;;;;14.30;8.35;;;12.90;99.90;;;;;;5031136;28;20052;-74
2021/12/30 07:47:07;;;;;;;17.60;8.98;;;12.90;99.90;;;;;;5031351;28;20473;-74
2021/12/30 07:49:36;;;;;;;15.85;10.13;;;13.00;99.90;;;;;;5031445;28;20108;-75
2021/12/30 07:52:05;;;;;;;22.20;10.88;;;12.90;99.90;;;;;;5031433;28;20040;-76
2021/12/30 07:54:30;;;;;;;18.58;11.48;;;12.90;99.90;;;;;;5030500;28;20080;-75
2021/12/30 07:56:56;;;;;;;17.83;12.77;;;13.00;99.90;;;;;;5031375;28;20057;-75
2021/12/30 07:59:22;;;;;;;20.52;13.85;;;13.00;99.90;;;;;;5029363;28;20036;-74
2021/12/30 08:01:48;;;;;;;20.60;14.60;;;13.00;99.90;;;;;;5032969;28;20033;-75
2021/12/30 08:04:14;;;;;;;18.63;15.27;;;13.00;99.90;;;;;;5034619;28;20065;-75
2021/12/30 08:06:40;;;;;;;25.38;16.60;;;13.00;99.90;;;;;;5032544;28;20028;-72
2021/12/30 08:09:06;;;;;;;24.27;17.25;;;13.00;99.90;;;;;;5035133;28;20104;-75
2021/12/30 08:11:32;;;;;;;23.85;17.70;;;13.00;99.90;;;;;;5034631;28;20026;-75
2021/12/30 08:13:59;;;;;;;26.17;18.02;;;13.10;99.90;;;;;;5034759;28;20473;-77
2021/12/30 08:16:26;;;;;;;27.15;16.45;;;13.10;99.90;;;;;;5035092;28;20148;-76
2021/12/30 08:18:52;;;;;;;26.50;17.02;;;13.10;99.90;;;;;;5033915;28;20109;-77
2021/12/30 08:21:19;;;;;;;22.90;16.65;;;13.10;99.90;;;;;;5034405;28;20117;-77
2021/12/30 08:23:46;;;;;;;22.52;15.10;;;13.20;99.90;;;;;;5034312;28;20017;-76
2021/12/30 08:26:11;;;;;;;21.30;14.38;;;13.20;99.90;;;;;;5034848;28;20041;-75
2021/12/30 08:28:37;;;;;;;20.05;13.63;;;13.30;99.90;;;;;;5034267;28;20461;-75
2021/12/30 08:31:03;;;;;;;18.95;14.18;;;13.30;99.90;;;;;;5033647;28;20040;-77
2021/12/30 08:33:29;;;;;;;18.63;13.65;;;13.30;99.90;;;;;;5033629;28;20033;-81
2021/12/30 08:35:55;;;;;;;20.75;13.50;;;13.30;99.90;;;;;;5034034;28;20029;-79
2021/12/30 08:38:20;;;;;;;15.75;11.77;;;13.30;99.90;;;;;;5033836;28;20108;-76
2021/12/30 08:40:47;;;;;;;15.52;11.88;;;13.40;99.90;;;;;;5042112;28;20029;-76
2021/12/30 08:43:16;;;;;;;15.05;11.15;;;13.40;99.90;;;;;;5041003;28;20022;-76
2021/12/30 08:45:43;;;;;;;16.45;11.07;;;13.40;99.90;;;;;;5033451;28;20025;-75
2021/12/30 08:48:08;;;;;;;14.55;10.80;;;13.50;99.90;;;;;;5033786;28;20049;-75
2021/12/30 08:50:35;;;;;;;15.23;10.35;;;13.50;99.90;;;;;;5033680;28;20132;-77
2021/12/30 08:53:01;;;;;;;14.52;10.00;;;13.50;99.90;;;;;;5033552;28;20426;-75
2021/12/30 08:55:27;;;;;;;12.55;9.35;;;13.50;99.90;;;;;;5032593;28;20052;-75
2021/12/30 08:57:53;;;;;;;15.82;10.30;;;13.50;99.90;;;;;;5033167;28;20113;-75
2021/12/30 09:00:25;;;;;;;12.77;8.57;;;13.50;99.90;;;;;;5032190;28;20030;-75
2021/12/30 09:02:53;;;;;;;16.60;8.45;;;13.50;99.90;;;;;;5033972;28;20056;-75
2021/12/30 09:05:19;;;;;;;11.98;9.18;;;13.60;99.90;;;;;;5033157;28;20025;-75
2021/12/30 09:07:46;;;;;;;12.98;8.20;;;13.60;99.90;;;;;;5034146;28;20030;-74
2021/12/30 09:10:14;;;;;;;12.98;8.55;;;13.60;99.90;;;;;;5033867;28;20381;-73
2021/12/30 09:12:43;;;;;;;12.32;7.72;;;13.60;99.90;;;;;;5033204;28;20059;-74
2021/12/30 09:15:11;;;;;;;14.32;8.13;;;13.50;99.90;;;;;;5031409;28;20071;-73
2021/12/30 09:17:38;;;;;;;12.77;7.60;;;13.60;99.90;;;;;;5033374;28;20025;-73
2021/12/30 09:20:06;;;;;;;13.85;7.65;;;13.60;99.90;;;;;;5033494;28;20033;-75
2021/12/30 09:22:33;;;;;;;11.93;6.35;;;13.60;99.90;;;;;;5031912;28;20100;-76
2021/12/30 09:25:07;;;;;;;10.68;6.43;;;13.60;99.90;;;;;;5030903;28;20036;-79
2021/12/30 09:27:34;;;;;;;14.45;6.88;;;13.70;99.90;;;;;;5033306;28;20067;-72
2021/12/30 09:30:01;;;;;;;16.10;6.60;;;13.70;99.90;;;;;;5033396;28;20041;-74
2021/12/30 09:32:27;;;;;;;10.40;6.25;;;13.70;99.90;;;;;;5032892;28;20029;-75
2021/12/30 09:34:53;;;;;;;12.15;6.13;;;13.70;99.90;;;;;;5032743;28;20476;-78
2021/12/30 09:37:18;;;;;;;17.35;6.55;;;13.70;99.90;;;;;;5032640;28;20044;-73
2021/12/30 09:39:44;;;;;;;12.70;5.57;;;13.70;99.90;;;;;;5032810;28;20033;-74
2021/12/30 09:42:10;;;;;;;13.65;5.25;;;13.70;99.90;;;;;;5033329;28;20057;-74
2021/12/30 09:44:36;;;;;;;13.73;4.90;;;13.70;99.90;;;;;;5032348;28;20025;-74
2021/12/30 09:47:02;;;;;;;9.38;4.40;;;13.70;99.90;;;;;;5032728;28;20183;-74
2021/12/30 09:49:28;;;;;;;11.52;4.75;;;13.80;99.90;;;;;;5033155;28;20122;-75
2021/12/30 09:51:54;;;;;;;13.55;3.95;;;13.80;99.90;;;;;;5030247;28;20029;-73
2021/12/30 09:54:21;;;;;;;14.52;4.32;;;13.80;99.90;;;;;;5030860;28;20056;-74
2021/12/30 09:56:50;;;;;;;14.60;3.97;;;13.80;99.90;;;;;;5032809;28;20025;-74
2021/12/30 09:59:15;;;;;;;14.07;4.22;;;13.80;99.90;;;;;;5032782;28;20029;-74
2021/12/30 10:01:43;;;;;;;15.27;3.38;;;13.80;99.90;;;;;;5032055;28;20087;-74
2021/12/30 10:04:11;;;;;;;11.88;4.07;;;13.90;99.90;;;;;;5032438;28;20388;-74
2021/12/30 10:06:42;;;;;;;16.13;3.60;;;14.00;99.90;;;;;;5032752;28;20465;-74
2021/12/30 10:09:13;;;;;;;14.10;3.63;;;14.00;99.90;;;;;;5032589;28;20046;-74
2021/12/30 10:11:59;;;;;;;15.48;4.05;;;14.00;99.90;;;;;;5032172;28;20029;-74
2021/12/30 10:14:32;;;;;;;10.23;3.30;;;14.00;99.90;;;;;;5032271;28;20405;-75
2021/12/30 10:17:13;;;;;;;;;;;14.00;99.90;;;;;;5032782;28;20053;-75
2021/12/30 10:19:38;;;;;;;9.68;3.53;;;14.00;99.90;;;;;;5032380;28;20350;-75
2021/12/30 10:22:12;;;;;;;13.23;3.03;;;14.00;99.90;;;;;;5032412;28;20113;-74
2021/12/30 10:24:39;;;;;;;14.25;3.30;;;14.00;99.90;;;;;;5030528;28;20033;-74
2021/12/30 10:27:05;;;;;;;15.30;3.10;;;14.10;99.90;;;;;;5032539;28;20420;-73
2021/12/30 10:29:42;;;;;;;9.93;2.80;;;14.00;99.90;;;;;;5031823;28;20033;-73
2021/12/30 10:32:20;;;;;;;11.40;2.85;;;14.10;99.90;;;;;;5031894;28;20030;-73
2021/12/30 10:35:14;;;;;;;11.27;3.05;;;14.10;99.90;;;;;;5030426;28;20038;-74
2021/12/30 10:37:45;;;;;;;14.95;2.70;;;14.10;99.90;;;;;;5031915;28;20029;-73
2021/12/30 10:40:27;;;;;;;11.00;3.03;;;14.10;99.90;;;;;;5032110;28;20120;-73
2021/12/30 10:43:26;;;;;;;12.75;2.75;;;14.10;99.90;;;;;;5028494;28;20038;-73
2021/12/30 10:46:13;;;;;;;16.85;3.45;;;14.10;99.90;;;;;;5031569;28;20108;-72
2021/12/30 10:48:54;;;;;;;14.57;3.38;;;14.10;99.90;;;;;;5032292;28;20163;-73
2021/12/30 10:51:33;;;;;;;13.98;3.65;;;14.10;99.90;;;;;;5031420;28;20037;-73
2021/12/30 10:54:00;;;;;;;13.27;3.63;;;14.20;99.90;;;;;;5031614;28;20041;-74
2021/12/30 10:56:34;;;;;;;11.82;3.72;;;14.10;99.90;;;;;;5031976;28;20043;-74
2021/12/30 10:59:08;;;;;;;15.25;4.13;;;14.20;99.90;;;;;;5031904;28;20068;-74
2021/12/30 11:02:03;;;;;;;14.82;4.15;;;14.20;99.90;;;;;;5032234;28;20460;-74
2021/12/30 11:05:00;;;;;;;13.57;3.85;;;14.20;99.90;;;;;;5025808;28;20397;-73
2021/12/30 11:07:47;;;;;;;13.70;4.07;;;14.20;99.90;;;;;;5031887;28;20021;-73
2021/12/30 11:10:28;;;;;;;12.55;3.80;;;14.20;99.90;;;;;;5031254;28;20033;-73
2021/12/30 11:12:54;;;;;;;17.58;4.18;;;14.20;99.90;;;;;;5027895;28;20037;-73
2021/12/30 11:15:27;;;;;;;17.55;4.60;;;14.20;99.90;;;;;;5031437;28;20099;-74
2021/12/30 11:18:18;;;;;;;16.63;4.10;;;14.20;99.90;;;;;;5029263;28;20037;-73
2021/12/30 11:20:46;;;;;;;13.18;4.20;;;14.30;99.90;;;;;;5029267;28;20041;-74
2021/12/30 11:23:14;;;;;;;13.95;3.55;;;14.20;99.90;;;;;;5031060;28;20109;-74
2021/12/30 11:25:40;;;;;;;13.35;3.33;;;14.30;99.90;;;;;;5031278;28;20076;-74
2021/12/30 11:28:05;;;;;;;16.08;3.88;;;14.30;99.90;;;;;;5031852;28;20053;-74
2021/12/30 11:30:31;;;;;;;16.20;3.88;;;14.20;99.90;;;;;;5031700;28;20044;-74
2021/12/30 11:32:57;;;;;;;14.77;3.75;;;14.20;99.90;;;;;;5031884;28;20025;-74
2021/12/30 11:35:26;;;;;;;12.95;3.55;;;14.20;99.90;;;;;;5031516;28;20047;-74
2021/12/30 11:37:53;;;;;;;15.80;3.20;;;14.30;99.90;;;;;;5032936;28;20025;-73
2021/12/30 11:40:23;;;;;;;12.73;3.05;;;14.30;99.90;;;;;;5034417;28;20037;-74
2021/12/30 11:43:09;;;;;;;13.07;2.95;;;14.30;99.90;;;;;;5035888;28;20136;-78
2021/12/30 11:45:38;;;;;;;11.02;2.95;;;14.30;99.90;;;;;;5034917;28;20072;-75
2021/12/30 11:48:21;;;;;;;11.07;2.58;;;14.20;99.90;;;;;;5034704;28;20408;-74
2021/12/30 11:50:48;;;;;;;13.82;3.75;;;14.20;99.90;;;;;;5034855;28;20025;-74
2021/12/30 11:53:26;;;;;;;13.15;2.92;;;14.20;99.90;;;;;;5033315;28;20036;-75
2021/12/30 11:55:59;;;;;;;14.95;3.17;;;14.30;99.90;;;;;;5032855;28;20033;-74
2021/12/30 11:58:27;;;;;;;;;;;14.30;99.90;;;;;;5034823;28;20389;-74
2021/12/30 12:01:24;;;;;;;18.35;2.92;;;14.30;99.90;;;;;;5034234;28;20346;-74
2021/12/30 12:03:52;;;;;;;16.20;3.00;;;14.30;99.90;;;;;;5033838;28;20026;-74
2021/12/30 12:06:27;;;;;;;14.02;2.78;;;14.30;99.90;;;;;;5035106;28;20026;-74
2021/12/30 12:08:55;;;;;;;15.25;3.47;;;14.30;99.90;;;;;;5033840;28;20029;-74
2021/12/30 12:11:24;;;;;;;15.82;3.22;;;14.20;99.90;;;;;;5034725;28;20465;-74
2021/12/30 12:13:54;;;;;;;15.05;2.97;;;14.20;99.90;;;;;;5034910;28;20512;-74
2021/12/30 12:16:47;;;;;;;14.15;3.08;;;14.30;99.90;;;;;;5035166;28;20095;-74
2021/12/30 12:19:14;;;;;;;13.50;3.05;;;14.30;99.90;;;;;;5022416;28;20128;-75
2021/12/30 12:21:53;;;;;;;12.57;3.58;;;14.30;99.90;;;;;;5032761;28;20036;-75
2021/12/30 12:24:22;;;;;;;13.18;3.03;;;14.30;99.90;;;;;;5032732;28;20061;-75
2021/12/30 12:26:53;;;;;;;14.27;3.00;;;14.30;99.90;;;;;;5032770;28;20052;-76
2021/12/30 12:29:42;;;;;;;13.32;3.30;;;14.30;99.90;;;;;;5033350;28;20087;-74
2021/12/30 12:32:19;;;;;;;14.70;3.83;;;14.30;99.90;;;;;;5030309;28;20444;-74
2021/12/30 12:34:51;;;;;;;9.57;3.30;;;14.30;99.90;;;;;;5034522;28;20036;-75
2021/12/30 12:37:32;;;;;;;17.07;3.80;;;14.30;99.90;;;;;;5034169;28;20029;-73
2021/12/30 12:40:04;;;;;;;9.40;2.90;;;14.30;99.90;;;;;;5034511;28;20068;-74